createdAt,value
2023-03-21T00:00:41.056Z,22.52
2023-03-21T00:03:08.865Z,25.20
2023-03-21T00:05:39.970Z,25.77
2023-03-21T00:08:06.850Z,27.08
2023-03-21T00:10:40.329Z,27.52
2023-03-21T00:13:13.483Z,27.55
2023-03-21T00:16:01.885Z,27.05
2023-03-21T00:18:30.948Z,26.17
2023-03-21T00:21:33.756Z,26.55
2023-03-21T00:23:48.782Z,26.35
2023-03-21T00:26:15.651Z,24.80
2023-03-21T00:28:43.305Z,25.77
2023-03-21T00:31:10.626Z,26.13
2023-03-21T00:33:39.278Z,26.85
2023-03-21T00:36:07.004Z,24.98
2023-03-21T00:38:34.543Z,26.52
2023-03-21T00:41:10.892Z,26.02
2023-03-21T00:43:42.039Z,24.15
2023-03-21T00:46:09.064Z,24.45
2023-03-21T00:48:36.376Z,24.42
2023-03-21T00:51:03.551Z,23.45
2023-03-21T00:53:31.288Z,23.83
2023-03-21T00:55:58.971Z,24.17
2023-03-21T00:58:26.299Z,24.25
2023-03-21T01:00:53.242Z,26.40
2023-03-21T01:03:24.778Z,25.67
2023-03-21T01:06:07.762Z,26.25
2023-03-21T01:08:50.657Z,26.38
2023-03-21T01:11:19.352Z,25.00
2023-03-21T01:13:53.682Z,25.58
2023-03-21T01:16:25.513Z,24.90
2023-03-21T01:18:52.829Z,24.50
2023-03-21T01:21:20.399Z,24.02
2023-03-21T01:23:47.785Z,24.92
2023-03-21T01:26:14.973Z,24.45
2023-03-21T01:28:44.697Z,24.13
2023-03-21T01:31:16.026Z,24.65
2023-03-21T01:33:43.302Z,23.30
2023-03-21T01:36:30.849Z,23.10
2023-03-21T01:39:02.990Z,22.20
2023-03-21T01:41:43.276Z,20.77
2023-03-21T01:44:26.171Z,18.85
2023-03-21T01:47:10.333Z,19.35
2023-03-21T01:49:46.285Z,18.70
2023-03-21T01:52:35.450Z,18.98
2023-03-21T01:55:08.006Z,18.35
2023-03-21T01:57:58.440Z,17.67
2023-03-21T02:00:33.284Z,17.80
2023-03-21T02:03:26.187Z,16.60
2023-03-21T02:06:35.442Z,17.00
2023-03-21T02:09:19.745Z,17.02
2023-03-21T02:11:47.176Z,16.35
2023-03-21T02:14:26.674Z,17.50
2023-03-21T02:17:03.819Z,17.17
2023-03-21T02:19:39.332Z,18.92
2023-03-21T02:22:29.129Z,19.35
2023-03-21T02:25:04.302Z,20.35
2023-03-21T02:27:41.029Z,20.65
2023-03-21T02:30:13.000Z,21.55
2023-03-21T02:32:49.733Z,21.30
2023-03-21T02:35:19.756Z,20.88
2023-03-21T02:37:58.569Z,22.08
2023-03-21T02:40:39.755Z,22.35
2023-03-21T02:43:20.784Z,21.92
2023-03-21T02:46:11.084Z,20.92
2023-03-21T02:48:50.203Z,22.25
2023-03-21T02:51:19.934Z,21.83
2023-03-21T02:53:51.857Z,21.65
2023-03-21T02:56:23.735Z,23.05
2023-03-21T02:58:54.684Z,21.85
2023-03-21T03:01:21.752Z,21.63
2023-03-21T03:03:49.432Z,21.10
2023-03-21T03:06:19.746Z,21.58
2023-03-21T03:09:05.621Z,21.75
2023-03-21T03:11:38.020Z,23.27
2023-03-21T03:14:38.397Z,20.48
2023-03-21T03:17:14.553Z,20.10
2023-03-21T03:19:57.319Z,21.02
2023-03-21T03:22:28.023Z,20.48
2023-03-21T03:25:19.837Z,21.92
2023-03-21T03:27:55.036Z,22.30
2023-03-21T03:30:25.490Z,20.92
2023-03-21T03:32:59.362Z,21.23
2023-03-21T03:35:26.560Z,21.75
2023-03-21T03:37:56.523Z,21.25
2023-03-21T03:40:45.522Z,20.10
2023-03-21T03:43:29.761Z,21.40
2023-03-21T03:46:03.166Z,20.25
2023-03-21T03:48:32.746Z,20.23
2023-03-21T03:51:02.554Z,19.90
2023-03-21T03:53:50.495Z,17.80
2023-03-21T03:56:17.460Z,17.88
2023-03-21T03:58:45.976Z,18.05
2023-03-21T04:01:16.000Z,15.95
2023-03-21T04:04:03.563Z,17.20
2023-03-21T04:06:32.385Z,16.48
2023-03-21T04:09:01.632Z,16.65
2023-03-21T04:11:31.235Z,16.00
2023-03-21T04:13:58.111Z,15.98
2023-03-21T04:16:25.951Z,16.55
2023-03-21T04:18:52.852Z,16.27
2023-03-21T04:21:19.897Z,16.33
2023-03-21T04:23:46.913Z,17.02
2023-03-21T04:26:13.732Z,15.82
2023-03-21T04:28:49.586Z,13.77
2023-03-21T04:31:36.448Z,13.35
2023-03-21T04:34:12.647Z,14.82
2023-03-21T04:36:45.922Z,13.75
2023-03-21T04:39:14.156Z,14.00
2023-03-21T04:41:44.100Z,13.90
2023-03-21T04:44:11.873Z,13.57
2023-03-21T04:46:39.490Z,13.10
2023-03-21T04:49:07.789Z,13.27
2023-03-21T04:51:35.952Z,12.23
2023-03-21T04:54:06.055Z,12.93
2023-03-21T04:56:33.966Z,12.90
2023-03-21T04:59:03.735Z,11.93
2023-03-21T05:01:30.936Z,12.50
2023-03-21T05:03:58.556Z,12.85
2023-03-21T05:06:26.566Z,13.13
2023-03-21T05:08:53.936Z,13.00
2023-03-21T05:11:20.666Z,12.65
2023-03-21T05:13:47.462Z,12.52
2023-03-21T05:16:14.386Z,11.88
2023-03-21T05:18:44.145Z,11.45
2023-03-21T05:21:18.361Z,10.90
2023-03-21T05:23:54.513Z,11.68
2023-03-21T05:26:22.144Z,11.20
2023-03-21T05:28:58.641Z,11.32
2023-03-21T05:31:25.727Z,11.40
2023-03-21T05:34:03.328Z,11.30
2023-03-21T05:36:30.302Z,11.05
2023-03-21T05:38:57.011Z,11.90
2023-03-21T05:41:23.912Z,10.68
2023-03-21T05:43:51.109Z,11.68
2023-03-21T05:46:18.076Z,11.85
2023-03-21T05:48:45.624Z,11.40
2023-03-21T05:51:15.373Z,10.23
2023-03-21T05:53:42.293Z,11.15
2023-03-21T05:56:09.682Z,11.27
2023-03-21T05:58:49.254Z,11.27
2023-03-21T06:01:16.109Z,11.15
2023-03-21T06:03:50.607Z,10.45
2023-03-21T06:06:21.839Z,11.57
2023-03-21T06:08:56.510Z,10.15
2023-03-21T06:11:25.957Z,10.95
2023-03-21T06:14:01.311Z,10.50
2023-03-21T06:16:28.901Z,9.82
2023-03-21T06:18:56.184Z,10.85
2023-03-21T06:21:35.533Z,10.25
2023-03-21T06:24:03.785Z,10.63
2023-03-21T06:26:31.186Z,9.75
2023-03-21T06:28:58.368Z,9.50
2023-03-21T06:31:26.685Z,10.32
2023-03-21T06:33:59.955Z,9.50
2023-03-21T06:36:26.790Z,10.00
2023-03-21T06:38:53.625Z,9.00
2023-03-21T06:41:20.769Z,8.88
2023-03-21T06:43:58.446Z,9.00
2023-03-21T06:46:25.811Z,9.18
2023-03-21T06:48:56.179Z,8.80
2023-03-21T06:51:30.934Z,8.65
2023-03-21T06:54:19.079Z,8.85
2023-03-21T06:57:13.566Z,8.85
2023-03-21T06:59:41.976Z,9.18
2023-03-21T07:02:11.483Z,9.25
2023-03-21T07:04:47.490Z,9.73
2023-03-21T07:07:19.405Z,9.73
2023-03-21T07:09:46.780Z,9.30
2023-03-21T07:12:13.494Z,9.98
2023-03-21T07:14:57.917Z,10.02
2023-03-21T07:17:24.801Z,10.23
2023-03-21T07:19:52.053Z,9.52
2023-03-21T07:22:19.485Z,9.68
2023-03-21T07:25:02.357Z,8.95
2023-03-21T07:27:33.368Z,9.15
2023-03-21T07:30:00.150Z,9.75
2023-03-21T07:32:29.954Z,9.57
2023-03-21T07:34:56.847Z,9.27
2023-03-21T07:37:24.067Z,9.57
2023-03-21T07:39:52.549Z,8.73
2023-03-21T07:42:20.412Z,8.95
2023-03-21T07:44:47.285Z,7.55
2023-03-21T07:47:13.987Z,7.93
2023-03-21T07:49:40.871Z,8.57
2023-03-21T07:52:08.019Z,8.30
2023-03-21T07:54:34.834Z,8.32
2023-03-21T07:57:01.673Z,8.45
2023-03-21T07:59:28.420Z,7.93
2023-03-21T08:01:55.282Z,7.85
2023-03-21T08:04:22.645Z,7.70
2023-03-21T08:06:50.332Z,6.97
2023-03-21T08:09:17.148Z,6.85
2023-03-21T08:11:44.024Z,6.47
2023-03-21T08:14:11.006Z,6.65
2023-03-21T08:16:37.842Z,6.38
2023-03-21T08:19:04.636Z,6.97
2023-03-21T08:21:31.590Z,7.32
2023-03-21T08:23:58.519Z,6.65
2023-03-21T08:26:26.576Z,7.30
2023-03-21T08:28:53.487Z,6.95
2023-03-21T08:31:21.794Z,7.80
2023-03-21T08:33:53.697Z,7.25
2023-03-21T08:36:21.674Z,7.68
2023-03-21T08:38:48.604Z,8.30
2023-03-21T08:41:15.679Z,7.90
2023-03-21T08:43:42.590Z,7.68
2023-03-21T08:46:09.511Z,8.45
2023-03-21T08:48:38.813Z,8.35
2023-03-21T08:51:06.339Z,9.25
2023-03-21T08:53:33.558Z,8.90
2023-03-21T08:56:00.676Z,8.57
2023-03-21T08:58:27.497Z,9.20
2023-03-21T09:00:54.413Z,9.82
2023-03-21T09:03:21.337Z,9.25
2023-03-21T09:05:48.281Z,8.60
2023-03-21T09:08:15.093Z,9.77
2023-03-21T09:10:41.808Z,8.52
2023-03-21T09:13:08.964Z,9.02
2023-03-21T09:15:36.411Z,8.23
2023-03-21T09:18:13.804Z,8.05
2023-03-21T09:20:40.944Z,8.32
2023-03-21T09:23:08.076Z,7.63
2023-03-21T09:25:35.002Z,8.48
2023-03-21T09:28:05.296Z,8.10
2023-03-21T09:30:33.293Z,8.30
2023-03-21T09:33:01.390Z,7.90
2023-03-21T09:35:28.374Z,8.82
2023-03-21T09:37:57.557Z,8.25
2023-03-21T09:40:28.246Z,8.15
2023-03-21T09:43:05.984Z,7.70
2023-03-21T09:45:38.503Z,7.50
2023-03-21T09:48:07.772Z,7.40
2023-03-21T09:50:38.926Z,7.70
2023-03-21T09:53:10.685Z,7.38
2023-03-21T09:55:39.753Z,7.80
2023-03-21T09:58:08.179Z,7.55
2023-03-21T10:00:37.571Z,6.65
2023-03-21T10:03:09.170Z,7.22
2023-03-21T10:05:43.218Z,7.28
2023-03-21T10:08:09.919Z,7.05
2023-03-21T10:10:45.062Z,8.10
2023-03-21T10:13:29.296Z,7.30
2023-03-21T10:15:57.133Z,6.78
2023-03-21T10:18:25.375Z,7.90
2023-03-21T10:20:52.338Z,7.88
2023-03-21T10:23:20.814Z,7.90
2023-03-21T10:26:02.157Z,7.25
2023-03-21T10:28:42.379Z,7.20
2023-03-21T10:31:25.405Z,7.80
2023-03-21T10:33:53.314Z,7.70
2023-03-21T10:36:25.941Z,7.50
2023-03-21T10:38:58.915Z,7.63
2023-03-21T10:41:25.793Z,8.07
2023-03-21T10:44:12.369Z,6.80
2023-03-21T10:46:39.535Z,7.75
2023-03-21T10:49:07.710Z,6.25
2023-03-21T10:51:36.375Z,6.30
2023-03-21T10:54:08.233Z,6.95
2023-03-21T10:56:36.732Z,6.45
2023-03-21T10:59:05.217Z,6.75
2023-03-21T11:01:36.685Z,6.03
2023-03-21T11:04:09.021Z,6.97
2023-03-21T11:06:39.346Z,6.60
2023-03-21T11:09:13.966Z,5.43
2023-03-21T11:11:42.536Z,5.68
2023-03-21T11:14:24.248Z,6.05
2023-03-21T11:16:51.665Z,5.85
2023-03-21T11:19:26.841Z,7.10
2023-03-21T11:21:53.682Z,6.10
2023-03-21T11:24:20.762Z,6.60
2023-03-21T11:26:49.695Z,5.97
2023-03-21T11:29:29.152Z,6.47
2023-03-21T11:32:09.600Z,6.50
2023-03-21T11:34:44.781Z,6.43
2023-03-21T11:37:19.182Z,6.93
2023-03-21T11:39:45.981Z,6.80
2023-03-21T11:42:32.929Z,7.05
2023-03-21T11:45:01.847Z,7.38
2023-03-21T11:47:28.964Z,7.05
2023-03-21T11:50:04.540Z,6.70
2023-03-21T11:52:37.816Z,6.82
2023-03-21T11:55:23.428Z,7.35
2023-03-21T11:58:00.186Z,6.97
2023-03-21T12:00:32.775Z,7.05
2023-03-21T12:03:05.347Z,6.32
2023-03-21T12:05:34.688Z,6.32
2023-03-21T12:08:01.438Z,5.80
2023-03-21T12:10:28.298Z,5.60
2023-03-21T12:12:55.411Z,5.80
2023-03-21T12:15:24.877Z,6.40
2023-03-21T12:18:11.177Z,6.38
2023-03-21T12:20:38.504Z,6.28
2023-03-21T12:23:11.469Z,6.28
2023-03-21T12:26:07.689Z,6.72
2023-03-21T12:28:34.515Z,6.85
2023-03-21T12:31:04.626Z,6.20
2023-03-21T12:33:57.675Z,6.05
2023-03-21T12:36:30.947Z,6.57
2023-03-21T12:39:03.830Z,6.18
2023-03-21T12:41:35.379Z,6.70
2023-03-21T12:44:29.840Z,7.32
2023-03-21T12:47:23.039Z,7.10
2023-03-21T12:49:54.060Z,6.82
2023-03-21T12:52:22.001Z,6.95
2023-03-21T12:54:52.570Z,7.75
2023-03-21T12:57:21.414Z,7.35
2023-03-21T13:00:11.079Z,7.60
2023-03-21T13:02:40.764Z,8.15
2023-03-21T13:05:22.505Z,8.00
2023-03-21T13:07:51.718Z,7.82
2023-03-21T13:10:23.272Z,8.90
2023-03-21T13:12:56.350Z,9.05
2023-03-21T13:15:45.084Z,9.18
2023-03-21T13:18:30.941Z,9.38
2023-03-21T13:20:59.351Z,7.45
2023-03-21T13:23:32.983Z,8.48
2023-03-21T13:25:59.844Z,8.05
2023-03-21T13:28:31.624Z,8.18
2023-03-21T13:31:19.013Z,8.05
2023-03-21T13:33:50.119Z,8.18
2023-03-21T13:36:22.489Z,8.43
2023-03-21T13:38:50.527Z,7.88
2023-03-21T13:41:48.856Z,8.52
2023-03-21T13:44:22.095Z,8.40
2023-03-21T13:47:15.432Z,8.73
2023-03-21T13:49:42.307Z,8.82
2023-03-21T13:52:08.959Z,8.63
2023-03-21T13:54:39.139Z,9.35
2023-03-21T13:57:06.978Z,9.52
2023-03-21T13:59:38.861Z,8.50
2023-03-21T14:02:12.238Z,8.85
2023-03-21T14:04:42.822Z,8.07
2023-03-21T14:07:22.990Z,8.13
2023-03-21T14:09:51.866Z,7.97
2023-03-21T14:12:19.960Z,6.65
2023-03-21T14:14:51.308Z,7.57
2023-03-21T14:17:25.261Z,6.97
2023-03-21T14:19:53.282Z,7.60
2023-03-21T14:22:20.124Z,7.70
2023-03-21T14:24:47.743Z,7.50
2023-03-21T14:27:14.691Z,7.45
2023-03-21T14:29:41.857Z,7.00
2023-03-21T14:32:18.075Z,7.78
2023-03-21T14:34:46.582Z,7.47
2023-03-21T14:37:13.415Z,7.30
2023-03-21T14:39:40.338Z,7.13
2023-03-21T14:42:08.215Z,7.78
2023-03-21T14:44:47.411Z,7.85
2023-03-21T14:47:21.863Z,7.03
2023-03-21T14:49:49.014Z,7.50
2023-03-21T14:52:26.247Z,7.38
2023-03-21T14:54:53.597Z,7.25
2023-03-21T14:57:22.062Z,7.93
2023-03-21T14:59:52.017Z,7.55
2023-03-21T15:02:21.986Z,7.72
2023-03-21T15:04:50.795Z,7.50
2023-03-21T15:07:29.696Z,8.68
2023-03-21T15:10:05.063Z,7.90
2023-03-21T15:12:32.122Z,7.93
2023-03-21T15:14:59.695Z,7.60
2023-03-21T15:17:26.580Z,8.80
2023-03-21T15:19:53.705Z,7.78
2023-03-21T15:22:24.999Z,8.20
2023-03-21T15:24:53.264Z,7.28
2023-03-21T15:27:23.843Z,7.68
2023-03-21T15:29:53.783Z,6.88
2023-03-21T15:32:22.853Z,6.85
2023-03-21T15:34:50.686Z,6.32
2023-03-21T15:37:22.022Z,6.57
2023-03-21T15:39:49.401Z,6.70
2023-03-21T15:42:29.904Z,6.72
2023-03-21T15:44:58.185Z,6.68
2023-03-21T15:47:50.694Z,6.93
2023-03-21T15:50:24.695Z,6.68
2023-03-21T15:52:52.243Z,7.40
2023-03-21T15:55:28.473Z,7.15
2023-03-21T15:58:01.370Z,7.72
2023-03-21T16:00:35.857Z,6.97
2023-03-21T16:03:06.521Z,8.27
2023-03-21T16:05:34.337Z,9.18
2023-03-21T16:08:31.521Z,9.90
2023-03-21T16:11:06.088Z,10.43
2023-03-21T16:13:32.888Z,10.98
2023-03-21T16:15:59.823Z,10.80
2023-03-21T16:18:26.624Z,10.18
2023-03-21T16:20:57.176Z,11.73
2023-03-21T16:23:23.962Z,10.85
2023-03-21T16:25:57.737Z,10.93
2023-03-21T16:28:24.965Z,10.95
2023-03-21T16:30:52.360Z,10.23
2023-03-21T16:33:19.193Z,9.65
2023-03-21T16:35:46.782Z,9.70
2023-03-21T16:38:13.988Z,7.63
2023-03-21T16:40:41.577Z,6.63
2023-03-21T16:43:08.836Z,5.95
2023-03-21T16:45:35.964Z,5.15
2023-03-21T16:48:03.239Z,5.00
2023-03-21T16:50:33.586Z,4.90
2023-03-21T16:53:00.559Z,5.35
2023-03-21T16:55:28.305Z,5.65
2023-03-21T16:57:55.794Z,5.32
2023-03-21T17:00:24.747Z,6.22
2023-03-21T17:02:52.232Z,5.43
2023-03-21T17:05:19.234Z,6.00
2023-03-21T17:07:47.013Z,5.60
2023-03-21T17:10:16.258Z,5.57
2023-03-21T17:12:43.011Z,5.40
2023-03-21T17:15:09.941Z,5.43
2023-03-21T17:17:36.777Z,5.35
2023-03-21T17:20:12.477Z,5.70
2023-03-21T17:22:39.459Z,5.63
2023-03-21T17:25:06.504Z,5.25
2023-03-21T17:27:33.426Z,5.22
2023-03-21T17:30:00.401Z,5.50
2023-03-21T17:32:27.338Z,5.40
2023-03-21T17:34:54.212Z,6.05
2023-03-21T17:37:21.919Z,5.47
2023-03-21T17:39:48.721Z,5.68
2023-03-21T17:42:15.954Z,6.05
2023-03-21T17:44:42.626Z,5.93
2023-03-21T17:47:13.217Z,6.55
2023-03-21T17:49:40.204Z,6.40
2023-03-21T17:52:07.058Z,6.28
2023-03-21T17:54:33.948Z,6.90
2023-03-21T17:57:01.224Z,7.97
2023-03-21T17:59:28.063Z,8.13
2023-03-21T18:01:54.933Z,7.88
2023-03-21T18:04:21.863Z,8.07
2023-03-21T18:06:48.906Z,8.50
2023-03-21T18:09:19.899Z,8.43
2023-03-21T18:11:48.426Z,7.72
2023-03-21T18:14:18.587Z,8.90
2023-03-21T18:16:49.128Z,8.05
2023-03-21T18:19:16.130Z,8.20
2023-03-21T18:21:45.247Z,8.60
2023-03-21T18:24:12.870Z,8.25
2023-03-21T18:26:39.926Z,8.30
2023-03-21T18:30:07.896Z,8.75
2023-03-21T18:32:05.441Z,9.30
2023-03-21T18:34:33.274Z,8.82
2023-03-21T18:37:03.678Z,9.77
2023-03-21T18:39:31.603Z,9.52
2023-03-21T18:42:02.567Z,9.13
2023-03-21T18:44:33.044Z,9.27
2023-03-21T18:46:59.951Z,9.93
2023-03-21T18:50:06.025Z,9.88
2023-03-21T18:52:13.477Z,9.05
2023-03-21T18:54:40.709Z,8.75
2023-03-21T18:59:56.811Z,9.35
2023-03-21T19:02:23.566Z,8.88
2023-03-21T19:04:50.594Z,9.90
2023-03-21T19:07:17.568Z,8.60
2023-03-21T19:10:10.707Z,10.00
2023-03-21T19:12:31.881Z,9.80
2023-03-21T19:14:58.743Z,10.45
2023-03-21T19:18:15.712Z,10.43
2023-03-21T19:20:14.310Z,11.00
2023-03-21T19:22:41.328Z,12.00
2023-03-21T19:25:09.373Z,11.30
2023-03-21T19:27:37.107Z,10.88
2023-03-21T19:30:14.429Z,11.05
2023-03-21T19:32:43.493Z,11.45
2023-03-21T19:35:10.742Z,11.50
2023-03-21T19:37:37.774Z,11.38
2023-03-21T19:40:05.719Z,10.48
2023-03-21T19:42:36.212Z,10.40
2023-03-21T19:45:04.099Z,11.07
2023-03-21T19:47:30.953Z,10.30
2023-03-21T19:52:44.519Z,10.15
2023-03-21T19:55:11.269Z,10.05
2023-03-21T19:57:37.976Z,9.57
2023-03-21T20:00:04.972Z,9.48
2023-03-21T20:02:35.909Z,9.43
2023-03-21T20:05:04.453Z,9.15
2023-03-21T20:07:32.980Z,9.43
2023-03-21T20:10:00.184Z,8.80
2023-03-21T20:12:27.552Z,7.47
2023-03-21T20:15:07.147Z,7.25
2023-03-21T20:17:38.884Z,7.57
2023-03-21T20:20:09.484Z,6.50
2023-03-21T20:23:05.338Z,7.43
2023-03-21T20:25:23.160Z,6.10
2023-03-21T20:28:09.379Z,6.03
2023-03-21T20:30:37.329Z,5.75
2023-03-21T20:33:04.392Z,6.05
2023-03-21T20:36:13.847Z,5.60
2023-03-21T20:38:20.643Z,5.90
2023-03-21T20:40:48.046Z,6.03
2023-03-21T20:44:04.895Z,6.07
2023-03-21T20:46:04.706Z,6.38
2023-03-21T20:48:31.853Z,6.55
2023-03-21T20:51:01.863Z,7.38
2023-03-21T20:53:29.695Z,8.07
2023-03-21T20:55:57.640Z,8.93
2023-03-21T20:58:54.798Z,9.88
2023-03-21T21:01:15.534Z,9.98
2023-03-21T21:03:44.629Z,10.55
2023-03-21T21:06:15.697Z,9.77
2023-03-21T21:08:45.560Z,9.52
2023-03-21T21:14:03.702Z,8.45
2023-03-21T21:16:30.740Z,8.60
2023-03-21T21:19:01.289Z,8.40
2023-03-21T21:21:28.122Z,8.20
2023-03-21T21:23:54.895Z,7.32
2023-03-21T21:26:21.690Z,7.25
2023-03-21T21:28:48.492Z,6.47
2023-03-21T21:31:16.664Z,4.95
2023-03-21T21:33:43.855Z,4.85
2023-03-21T21:36:12.066Z,5.10
2023-03-21T21:38:40.829Z,4.65
2023-03-21T21:41:09.520Z,3.63
2023-03-21T21:43:36.659Z,3.50
2023-03-21T21:46:03.460Z,4.22
2023-03-21T21:48:30.274Z,3.60
2023-03-21T21:51:01.608Z,3.67
2023-03-21T21:53:29.103Z,4.07
2023-03-21T21:55:56.053Z,3.40
2023-03-21T21:58:22.906Z,3.45
2023-03-21T22:00:52.457Z,3.20
2023-03-21T22:03:22.182Z,3.25
2023-03-21T22:05:49.946Z,2.75
2023-03-21T22:08:16.949Z,2.15
2023-03-21T22:10:45.093Z,2.22
2023-03-21T22:13:12.278Z,2.95
2023-03-21T22:15:38.956Z,3.28
2023-03-21T22:18:06.289Z,2.72
2023-03-21T22:20:33.961Z,2.22
2023-03-21T22:23:00.967Z,2.70
2023-03-21T22:25:27.790Z,2.05
2023-03-21T22:27:54.748Z,2.55
2023-03-21T22:30:21.475Z,2.90
2023-03-21T22:33:02.586Z,3.08
2023-03-21T22:35:35.399Z,2.72
2023-03-21T22:38:02.199Z,2.65
2023-03-21T22:40:29.004Z,2.65
2023-03-21T22:42:56.027Z,2.05
2023-03-21T22:45:23.061Z,2.53
2023-03-21T22:47:49.960Z,2.88
2023-03-21T22:50:16.839Z,2.50
2023-03-21T22:52:43.554Z,2.53
2023-03-21T22:55:12.625Z,2.03
2023-03-21T22:57:39.631Z,2.25
2023-03-21T23:00:13.833Z,2.33
2023-03-21T23:02:41.492Z,2.40
2023-03-21T23:05:08.873Z,2.03
2023-03-21T23:07:36.329Z,2.25
2023-03-21T23:10:05.155Z,2.15
2023-03-21T23:12:32.119Z,2.10
2023-03-21T23:14:59.886Z,2.25
2023-03-21T23:17:27.645Z,2.20
2023-03-21T23:19:54.410Z,2.72
2023-03-21T23:22:21.339Z,2.25
2023-03-21T23:24:49.141Z,2.40
2023-03-21T23:27:18.308Z,2.15
2023-03-21T23:29:45.484Z,2.20
2023-03-21T23:32:12.674Z,2.38
2023-03-21T23:34:39.745Z,2.45
2023-03-21T23:37:06.935Z,1.77
2023-03-21T23:39:34.574Z,2.28
2023-03-21T23:42:01.633Z,2.20
2023-03-21T23:44:28.526Z,2.20
2023-03-21T23:46:55.466Z,2.00
2023-03-21T23:49:22.300Z,2.08
2023-03-21T23:51:50.094Z,2.40
2023-03-21T23:54:17.059Z,1.90
2023-03-21T23:56:44.035Z,2.88
2023-03-21T23:59:10.879Z,2.28
